createdAt,value
2022-09-26T00:03:44.645Z,68.47
2022-09-26T00:08:00.986Z,69.09
2022-09-26T00:12:17.263Z,69.06
2022-09-26T00:16:33.734Z,68.98
2022-09-26T00:20:49.799Z,68.80
2022-09-26T00:25:06.254Z,68.63
2022-09-26T00:29:22.274Z,69.52
2022-09-26T00:33:38.505Z,68.30
2022-09-26T00:37:54.490Z,68.45
2022-09-26T00:42:16.709Z,67.71
2022-09-26T00:46:36.698Z,68.39
2022-09-26T00:50:52.914Z,68.16
2022-09-26T00:55:12.627Z,68.69
2022-09-26T00:59:48.502Z,67.63
2022-09-26T01:04:05.960Z,67.77
2022-09-26T01:08:26.824Z,68.24
2022-09-26T01:12:43.736Z,68.85
2022-09-26T01:17:00.321Z,68.05
2022-09-26T01:21:48.196Z,68.60
2022-09-26T01:26:56.601Z,68.69
2022-09-26T01:31:25.903Z,69.12
2022-09-26T01:36:38.574Z,68.60
2022-09-26T01:41:12.924Z,67.85
2022-09-26T01:45:39.620Z,69.55
2022-09-26T01:50:06.540Z,69.14
2022-09-26T01:54:42.012Z,69.01
2022-09-26T01:59:00.598Z,69.03
2022-09-26T02:03:21.855Z,69.66
2022-09-26T02:07:41.795Z,69.35
2022-09-26T02:12:02.206Z,68.25
2022-09-26T02:16:51.363Z,68.19
2022-09-26T02:21:22.296Z,67.95
2022-09-26T02:25:38.246Z,68.73
2022-09-26T02:29:54.765Z,69.38
2022-09-26T02:34:10.908Z,69.65
2022-09-26T02:38:29.411Z,68.27
2022-09-26T02:42:53.678Z,68.32
2022-09-26T02:47:31.380Z,68.67
2022-09-26T02:52:10.758Z,69.13
2022-09-26T02:56:30.204Z,69.90
2022-09-26T03:00:58.303Z,68.78
2022-09-26T03:05:20.617Z,68.58
2022-09-26T03:09:37.236Z,69.69
2022-09-26T03:13:54.464Z,67.84
2022-09-26T03:18:19.417Z,68.82
2022-09-26T03:22:36.186Z,69.69
2022-09-26T03:26:53.210Z,68.68
2022-09-26T03:31:09.189Z,68.55
2022-09-26T03:35:25.089Z,68.89
2022-09-26T03:39:41.153Z,67.75
2022-09-26T03:43:57.803Z,67.69
2022-09-26T03:48:13.826Z,68.28
2022-09-26T03:52:30.098Z,68.00
2022-09-26T03:56:46.261Z,67.43
2022-09-26T04:01:11.115Z,67.66
2022-09-26T04:05:27.127Z,68.13
2022-09-26T04:09:43.065Z,67.91
2022-09-26T04:13:59.078Z,67.88
2022-09-26T04:18:15.037Z,67.71
2022-09-26T04:22:31.025Z,68.26
2022-09-26T04:26:46.989Z,67.56
2022-09-26T04:31:04.527Z,67.56
2022-09-26T04:35:20.546Z,67.89
2022-09-26T04:39:36.576Z,68.46
2022-09-26T04:43:53.972Z,68.50
2022-09-26T04:48:10.596Z,68.30
2022-09-26T04:52:26.716Z,69.55
2022-09-26T04:56:42.791Z,68.93
2022-09-26T05:01:09.961Z,69.12
2022-09-26T05:05:26.052Z,69.25
2022-09-26T05:09:42.939Z,69.29
2022-09-26T05:13:58.953Z,69.67
2022-09-26T05:18:15.271Z,69.15
2022-09-26T05:22:31.895Z,69.65
2022-09-26T05:26:51.512Z,70.09
2022-09-26T05:31:08.794Z,69.34
2022-09-26T05:35:24.838Z,69.99
2022-09-26T05:39:59.239Z,69.90
2022-09-26T05:44:15.221Z,69.85
2022-09-26T05:48:32.985Z,70.07
2022-09-26T05:52:49.084Z,69.58
2022-09-26T05:57:05.048Z,69.17
2022-09-26T06:01:21.042Z,68.49
2022-09-26T06:05:38.274Z,69.62
2022-09-26T06:09:54.493Z,69.53
2022-09-26T06:14:10.495Z,69.66
2022-09-26T06:18:26.481Z,69.41
2022-09-26T06:22:43.467Z,69.85
2022-09-26T06:26:59.438Z,68.72
2022-09-26T06:31:17.144Z,69.48
2022-09-26T06:35:33.359Z,69.31
2022-09-26T06:39:49.383Z,68.51
2022-09-26T06:44:05.353Z,68.86
2022-09-26T06:48:25.540Z,70.59
2022-09-26T06:52:42.592Z,70.30
2022-09-26T06:56:58.709Z,70.43
2022-09-26T07:01:15.299Z,70.05
2022-09-26T07:05:31.573Z,69.30
2022-09-26T07:09:47.546Z,68.80
2022-09-26T07:14:03.756Z,69.83
2022-09-26T07:18:19.813Z,69.17
2022-09-26T07:22:35.895Z,73.14
2022-09-26T07:26:52.182Z,70.94
2022-09-26T07:31:08.311Z,71.10
2022-09-26T07:35:25.004Z,71.85
2022-09-26T07:39:41.048Z,68.93
2022-09-26T07:48:51.970Z,69.53
2022-09-26T07:53:08.239Z,69.54
2022-09-26T07:57:24.762Z,68.75
2022-09-26T08:01:41.024Z,69.33
2022-09-26T08:05:59.657Z,69.57
2022-09-26T08:10:22.624Z,71.66
2022-09-26T08:14:40.021Z,73.71
2022-09-26T08:18:56.030Z,73.11
2022-09-26T08:23:11.941Z,72.06
2022-09-26T08:27:32.199Z,73.01
2022-09-26T08:31:48.550Z,72.51
2022-09-26T08:36:13.516Z,73.70
2022-09-26T08:40:48.077Z,71.43
2022-09-26T08:45:37.955Z,72.39
2022-09-26T08:50:26.111Z,70.93
2022-09-26T08:54:45.490Z,72.36
2022-09-26T08:59:04.002Z,72.23
2022-09-26T09:03:48.124Z,72.91
2022-09-26T09:08:08.177Z,74.74
2022-09-26T09:12:52.624Z,75.13
2022-09-26T09:17:27.160Z,75.70
2022-09-26T09:21:46.059Z,74.31
2022-09-26T09:31:15.147Z,73.03
2022-09-26T09:35:41.495Z,75.83
2022-09-26T09:39:57.575Z,72.36
2022-09-26T09:44:46.976Z,72.12
2022-09-26T09:49:11.838Z,71.82
2022-09-26T09:54:00.666Z,73.36
2022-09-26T09:58:30.058Z,72.68
2022-09-26T10:03:04.319Z,72.32
2022-09-26T10:07:20.486Z,71.70
2022-09-26T10:11:42.187Z,73.23
2022-09-26T10:16:08.991Z,70.43
2022-09-26T10:20:43.032Z,71.63
2022-09-26T10:25:28.289Z,71.38
2022-09-26T10:29:44.877Z,69.83
2022-09-26T10:34:03.229Z,68.05
2022-09-26T10:38:24.389Z,69.94
2022-09-26T10:42:40.770Z,68.99
2022-09-26T10:47:03.056Z,68.41
2022-09-26T10:51:32.835Z,67.91
2022-09-26T10:55:59.933Z,67.31
2022-09-26T11:00:39.322Z,66.51
2022-09-26T11:05:20.182Z,65.32
2022-09-26T11:09:38.486Z,65.50
2022-09-26T11:14:05.137Z,67.19
2022-09-26T11:18:28.692Z,65.38
2022-09-26T11:23:04.359Z,65.05
2022-09-26T11:27:31.305Z,67.21
2022-09-26T11:31:47.515Z,66.76
2022-09-26T11:36:18.179Z,67.76
2022-09-26T11:40:56.099Z,67.51
2022-09-26T11:45:22.262Z,66.09
2022-09-26T11:49:56.235Z,65.00
2022-09-26T11:54:21.092Z,61.82
2022-09-26T11:58:45.867Z,63.31
2022-09-26T12:03:29.191Z,62.46
2022-09-26T12:07:49.862Z,61.13
2022-09-26T12:12:35.909Z,62.36
2022-09-26T12:17:01.475Z,64.64
2022-09-26T12:21:42.501Z,64.56
2022-09-26T12:26:28.706Z,61.71
2022-09-26T12:30:53.782Z,62.13
2022-09-26T12:35:27.075Z,61.35
2022-09-26T12:40:09.278Z,60.11
2022-09-26T12:44:45.150Z,61.23
2022-09-26T12:49:25.538Z,60.47
2022-09-26T12:53:47.707Z,61.30
2022-09-26T12:58:55.445Z,62.17
2022-09-26T13:03:16.569Z,61.63
2022-09-26T13:08:02.862Z,59.97
2022-09-26T13:12:40.856Z,61.30
2022-09-26T13:17:31.122Z,59.58
2022-09-26T13:22:27.930Z,57.72
2022-09-26T13:26:48.566Z,53.80
2022-09-26T13:31:39.941Z,52.60
2022-09-26T13:35:56.927Z,50.83
2022-09-26T13:40:24.724Z,53.67
2022-09-26T13:44:46.598Z,55.78
2022-09-26T13:49:36.809Z,54.52
2022-09-26T13:54:05.150Z,54.51
2022-09-26T13:58:26.376Z,53.72
2022-09-26T14:02:42.838Z,55.53
2022-09-26T14:07:29.289Z,54.66
2022-09-26T14:11:51.153Z,56.03
2022-09-26T14:16:28.321Z,54.99
2022-09-26T14:21:13.905Z,54.79
2022-09-26T14:25:55.524Z,55.17
2022-09-26T14:30:23.701Z,56.65
2022-09-26T14:34:46.937Z,56.86
2022-09-26T14:39:04.519Z,56.90
2022-09-26T14:43:23.452Z,56.94
2022-09-26T14:48:01.206Z,56.81
2022-09-26T14:52:20.156Z,54.02
2022-09-26T14:56:48.442Z,53.53
2022-09-26T15:01:19.009Z,51.30
2022-09-26T15:05:35.302Z,48.38
2022-09-26T15:10:18.919Z,51.42
2022-09-26T15:14:41.385Z,51.91
2022-09-26T15:19:26.041Z,51.53
2022-09-26T15:23:50.006Z,52.31
2022-09-26T15:28:05.957Z,51.31
2022-09-26T15:32:32.569Z,49.91
2022-09-26T15:36:54.355Z,52.05
2022-09-26T15:41:38.822Z,48.07
2022-09-26T15:46:00.012Z,48.02
2022-09-26T15:50:42.152Z,48.58
2022-09-26T15:54:58.326Z,50.35
2022-09-26T15:59:38.566Z,51.97
2022-09-26T16:04:14.388Z,52.03
2022-09-26T16:08:36.618Z,53.47
2022-09-26T16:12:53.217Z,53.82
2022-09-26T16:17:18.776Z,53.68
2022-09-26T16:21:37.316Z,52.83
2022-09-26T16:25:55.089Z,55.16
2022-09-26T16:30:43.189Z,55.90
2022-09-26T16:35:17.963Z,56.03
2022-09-26T16:39:33.931Z,58.11
2022-09-26T16:44:13.904Z,58.05
2022-09-26T16:48:40.268Z,59.05
2022-09-26T16:52:57.061Z,60.00
2022-09-26T16:57:27.939Z,61.37
2022-09-26T17:01:54.829Z,62.39
2022-09-26T17:06:10.934Z,61.84
2022-09-26T17:10:27.198Z,63.03
2022-09-26T17:14:43.695Z,62.27
2022-09-26T17:19:00.707Z,63.03
2022-09-26T17:23:38.702Z,62.69
2022-09-26T17:27:58.156Z,62.82
2022-09-26T17:32:17.985Z,63.32
2022-09-26T17:36:34.094Z,63.27
2022-09-26T17:40:50.208Z,64.18
2022-09-26T17:45:07.061Z,63.84
2022-09-26T17:49:30.283Z,64.09
2022-09-26T17:53:50.867Z,62.45
2022-09-26T17:58:10.467Z,62.62
2022-09-26T18:02:57.145Z,62.73
2022-09-26T18:07:17.439Z,63.24
2022-09-26T18:11:36.674Z,63.15
2022-09-26T18:15:58.288Z,63.24
2022-09-26T18:20:17.245Z,63.48
2022-09-26T18:24:33.692Z,64.59
2022-09-26T18:28:52.826Z,65.18
2022-09-26T18:33:10.425Z,64.95
2022-09-26T18:37:26.865Z,64.93
2022-09-26T18:41:45.419Z,65.55
2022-09-26T18:46:01.844Z,66.17
2022-09-26T18:50:27.363Z,65.98
2022-09-26T18:54:45.274Z,65.11
2022-09-26T18:59:01.489Z,66.69
2022-09-26T19:03:18.579Z,65.70
2022-09-26T19:07:34.583Z,65.69
2022-09-26T19:11:50.759Z,65.38
2022-09-26T19:16:07.497Z,66.54
2022-09-26T19:20:23.862Z,67.76
2022-09-26T19:25:00.137Z,66.44
2022-09-26T19:29:19.697Z,67.61
2022-09-26T19:33:37.771Z,66.52
2022-09-26T19:37:54.291Z,66.82
2022-09-26T19:42:12.402Z,66.46
2022-09-26T19:46:28.852Z,66.89
2022-09-26T19:50:46.753Z,66.53
2022-09-26T19:55:02.793Z,65.66
2022-09-26T19:59:22.067Z,64.81
2022-09-26T20:03:40.667Z,65.12
2022-09-26T20:07:56.634Z,65.41
2022-09-26T20:12:13.077Z,65.51
2022-09-26T20:16:31.822Z,65.28
2022-09-26T20:20:55.956Z,65.22
2022-09-26T20:25:17.800Z,66.50
2022-09-26T20:29:54.360Z,67.32
2022-09-26T20:34:11.647Z,66.27
2022-09-26T20:38:30.822Z,65.83
2022-09-26T20:42:50.627Z,66.16
2022-09-26T20:47:07.259Z,66.51
2022-09-26T20:51:30.231Z,65.87
2022-09-26T20:55:47.637Z,65.34
2022-09-26T21:00:03.712Z,66.12
2022-09-26T21:04:21.982Z,66.75
2022-09-26T21:08:37.904Z,67.35
2022-09-26T21:12:54.592Z,66.79
2022-09-26T21:17:17.798Z,66.19
2022-09-26T21:21:33.734Z,66.42
2022-09-26T21:25:50.504Z,66.23
2022-09-26T21:30:06.872Z,67.81
2022-09-26T21:34:27.906Z,67.98
2022-09-26T21:38:45.403Z,66.59
2022-09-26T21:43:14.635Z,67.39
2022-09-26T21:47:32.175Z,67.25
2022-09-26T21:51:51.790Z,66.96
2022-09-26T21:56:19.141Z,66.73
2022-09-26T22:00:35.067Z,66.18
2022-09-26T22:04:52.868Z,67.24
2022-09-26T22:09:09.685Z,67.79
2022-09-26T22:13:25.650Z,67.53
2022-09-26T22:17:41.583Z,67.72
2022-09-26T22:21:57.538Z,67.17
2022-09-26T22:26:13.480Z,67.06
2022-09-26T22:30:29.556Z,67.05
2022-09-26T22:34:45.575Z,66.98
2022-09-26T22:39:02.028Z,65.75
2022-09-26T22:43:17.939Z,67.38
2022-09-26T22:47:33.969Z,66.42
2022-09-26T22:51:49.942Z,65.68
2022-09-26T22:56:08.283Z,65.63
2022-09-26T23:00:24.318Z,66.24
2022-09-26T23:04:49.348Z,65.07
2022-09-26T23:09:05.506Z,65.64
2022-09-26T23:13:22.182Z,65.38
2022-09-26T23:17:38.752Z,65.41
2022-09-26T23:21:54.884Z,65.76
2022-09-26T23:26:28.395Z,65.90
2022-09-26T23:30:44.704Z,65.20
2022-09-26T23:35:00.886Z,66.56
2022-09-26T23:39:17.117Z,65.76
2022-09-26T23:43:33.379Z,66.56
2022-09-26T23:47:49.519Z,66.31
2022-09-26T23:52:05.482Z,65.86
2022-09-26T23:56:21.814Z,66.69
